sensor_id;sensor_type;location;lat;lon;timestamp;P1;durP1;ratioP1;P2;durP2;ratioP2
3979;SDS011;2004;52.452;13.120;2022-09-14T00:04:18;6.20;;;2.93;;
3979;SDS011;2004;52.452;13.120;2022-09-14T00:12:09;3.23;;;1.90;;
3979;SDS011;2004;52.452;13.120;2022-09-14T00:19:59;6.90;;;2.50;;
3979;SDS011;2004;52.452;13.120;2022-09-14T00:27:51;5.23;;;1.97;;
3979;SDS011;2004;52.452;13.120;2022-09-14T00:35:43;5.00;;;2.07;;
3979;SDS011;2004;52.452;13.120;2022-09-14T00:43:49;7.30;;;2.30;;
3979;SDS011;2004;52.452;13.120;2022-09-14T00:51:43;4.30;;;1.53;;
3979;SDS011;2004;52.452;13.120;2022-09-14T00:59:38;8.00;;;1.77;;
3979;SDS011;2004;52.452;13.120;2022-09-14T01:24:15;1.90;;;1.60;;
3979;SDS011;2004;52.452;13.120;2022-09-14T01:32:14;3.33;;;1.77;;
3979;SDS011;2004;52.452;13.120;2022-09-14T01:40:10;8.27;;;2.13;;
3979;SDS011;2004;52.452;13.120;2022-09-14T01:48:06;7.37;;;2.23;;
3979;SDS011;2004;52.452;13.120;2022-09-14T01:56:14;7.40;;;1.87;;
3979;SDS011;2004;52.452;13.120;2022-09-14T02:04:12;4.60;;;1.97;;
3979;SDS011;2004;52.452;13.120;2022-09-14T02:12:06;6.07;;;2.00;;
3979;SDS011;2004;52.452;13.120;2022-09-14T02:19:58;3.83;;;1.80;;
3979;SDS011;2004;52.452;13.120;2022-09-14T02:27:50;4.07;;;2.10;;
3979;SDS011;2004;52.452;13.120;2022-09-14T02:35:49;3.47;;;2.13;;
3979;SDS011;2004;52.452;13.120;2022-09-14T02:43:59;8.40;;;2.03;;
3979;SDS011;2004;52.452;13.120;2022-09-14T03:00:07;4.50;;;2.60;;
3979;SDS011;2004;52.452;13.120;2022-09-14T03:07:58;15.43;;;2.77;;
3979;SDS011;2004;52.452;13.120;2022-09-14T03:15:50;3.77;;;2.50;;
3979;SDS011;2004;52.452;13.120;2022-09-14T03:23:41;6.00;;;2.40;;
3979;SDS011;2004;52.452;13.120;2022-09-14T03:31:33;12.13;;;3.80;;
3979;SDS011;2004;52.452;13.120;2022-09-14T03:39:23;6.93;;;2.53;;
3979;SDS011;2004;52.452;13.120;2022-09-14T03:47:14;10.10;;;2.73;;
3979;SDS011;2004;52.452;13.120;2022-09-14T03:55:05;10.77;;;2.90;;
3979;SDS011;2004;52.452;13.120;2022-09-14T04:02:58;6.93;;;2.70;;
3979;SDS011;2004;52.452;13.120;2022-09-14T04:10:49;15.77;;;3.30;;
3979;SDS011;2004;52.452;13.120;2022-09-14T04:18:39;5.87;;;2.57;;
3979;SDS011;2004;52.452;13.120;2022-09-14T04:26:30;3.80;;;3.00;;
3979;SDS011;2004;52.452;13.120;2022-09-14T04:34:21;15.03;;;3.53;;
3979;SDS011;2004;52.452;13.120;2022-09-14T04:42:11;6.17;;;3.50;;
3979;SDS011;2004;52.452;13.120;2022-09-14T04:50:02;10.80;;;3.20;;
3979;SDS011;2004;52.452;13.120;2022-09-14T04:57:52;6.53;;;2.80;;
3979;SDS011;2004;52.452;13.120;2022-09-14T05:05:43;3.33;;;2.23;;
3979;SDS011;2004;52.452;13.120;2022-09-14T05:13:33;8.23;;;2.80;;
3979;SDS011;2004;52.452;13.120;2022-09-14T05:21:24;14.30;;;4.03;;
3979;SDS011;2004;52.452;13.120;2022-09-14T05:29:16;4.30;;;2.80;;
3979;SDS011;2004;52.452;13.120;2022-09-14T05:37:09;6.53;;;3.37;;
3979;SDS011;2004;52.452;13.120;2022-09-14T05:45:01;11.20;;;3.00;;
3979;SDS011;2004;52.452;13.120;2022-09-14T05:52:51;12.20;;;2.53;;
3979;SDS011;2004;52.452;13.120;2022-09-14T06:00:43;9.20;;;3.10;;
3979;SDS011;2004;52.452;13.120;2022-09-14T06:08:34;10.47;;;2.73;;
3979;SDS011;2004;52.452;13.120;2022-09-14T06:16:25;7.07;;;3.13;;
3979;SDS011;2004;52.452;13.120;2022-09-14T06:24:16;19.17;;;3.40;;
3979;SDS011;2004;52.452;13.120;2022-09-14T06:32:07;6.20;;;2.50;;
3979;SDS011;2004;52.452;13.120;2022-09-14T06:39:57;9.57;;;2.43;;
3979;SDS011;2004;52.452;13.120;2022-09-14T06:47:48;10.47;;;2.80;;
3979;SDS011;2004;52.452;13.120;2022-09-14T06:55:38;10.73;;;2.80;;
3979;SDS011;2004;52.452;13.120;2022-09-14T07:03:30;12.67;;;2.73;;
3979;SDS011;2004;52.452;13.120;2022-09-14T07:11:25;11.03;;;2.47;;
3979;SDS011;2004;52.452;13.120;2022-09-14T07:19:16;8.50;;;2.13;;
3979;SDS011;2004;52.452;13.120;2022-09-14T07:27:07;16.43;;;3.23;;
3979;SDS011;2004;52.452;13.120;2022-09-14T07:34:57;13.43;;;3.90;;
3979;SDS011;2004;52.452;13.120;2022-09-14T07:42:51;10.37;;;2.57;;
3979;SDS011;2004;52.452;13.120;2022-09-14T07:50:42;13.43;;;2.60;;
3979;SDS011;2004;52.452;13.120;2022-09-14T07:58:33;8.57;;;2.17;;
3979;SDS011;2004;52.452;13.120;2022-09-14T08:06:24;8.20;;;2.13;;
3979;SDS011;2004;52.452;13.120;2022-09-14T08:14:15;11.53;;;2.57;;
3979;SDS011;2004;52.452;13.120;2022-09-14T08:22:05;6.20;;;2.30;;
3979;SDS011;2004;52.452;13.120;2022-09-14T08:29:56;13.63;;;1.80;;
3979;SDS011;2004;52.452;13.120;2022-09-14T08:37:46;18.03;;;2.73;;
3979;SDS011;2004;52.452;13.120;2022-09-14T08:45:37;8.07;;;2.60;;
3979;SDS011;2004;52.452;13.120;2022-09-14T08:53:32;16.73;;;2.40;;
3979;SDS011;2004;52.452;13.120;2022-09-14T09:09:42;12.83;;;2.03;;
3979;SDS011;2004;52.452;13.120;2022-09-14T09:17:42;11.07;;;2.70;;
3979;SDS011;2004;52.452;13.120;2022-09-14T09:25:53;8.23;;;2.03;;
3979;SDS011;2004;52.452;13.120;2022-09-14T09:33:48;7.20;;;2.00;;
3979;SDS011;2004;52.452;13.120;2022-09-14T09:49:55;13.87;;;1.87;;
3979;SDS011;2004;52.452;13.120;2022-09-14T09:57:48;6.43;;;2.17;;
3979;SDS011;2004;52.452;13.120;2022-09-14T10:05:38;10.83;;;2.60;;
3979;SDS011;2004;52.452;13.120;2022-09-14T10:13:33;10.50;;;2.00;;
3979;SDS011;2004;52.452;13.120;2022-09-14T10:21:26;9.50;;;1.97;;
3979;SDS011;2004;52.452;13.120;2022-09-14T10:29:25;7.30;;;2.30;;
3979;SDS011;2004;52.452;13.120;2022-09-14T10:53:48;12.70;;;2.03;;
3979;SDS011;2004;52.452;13.120;2022-09-14T11:01:52;8.80;;;2.20;;
3979;SDS011;2004;52.452;13.120;2022-09-14T11:09:56;8.37;;;1.90;;
3979;SDS011;2004;52.452;13.120;2022-09-14T11:18:12;19.20;;;2.70;;
3979;SDS011;2004;52.452;13.120;2022-09-14T11:26:32;7.30;;;2.10;;
3979;SDS011;2004;52.452;13.120;2022-09-14T11:34:34;8.23;;;2.30;;
3979;SDS011;2004;52.452;13.120;2022-09-14T11:50:53;9.67;;;2.90;;
3979;SDS011;2004;52.452;13.120;2022-09-14T11:58:59;5.20;;;1.87;;
3979;SDS011;2004;52.452;13.120;2022-09-14T12:06:55;14.07;;;2.30;;
3979;SDS011;2004;52.452;13.120;2022-09-14T12:14:45;8.90;;;2.10;;
3979;SDS011;2004;52.452;13.120;2022-09-14T12:22:36;10.77;;;3.00;;
3979;SDS011;2004;52.452;13.120;2022-09-14T12:54:30;6.47;;;2.30;;
3979;SDS011;2004;52.452;13.120;2022-09-14T13:10:48;5.80;;;1.60;;
3979;SDS011;2004;52.452;13.120;2022-09-14T13:18:40;7.00;;;2.20;;
3979;SDS011;2004;52.452;13.120;2022-09-14T13:26:31;7.37;;;2.10;;
3979;SDS011;2004;52.452;13.120;2022-09-14T13:34:24;5.60;;;1.80;;
3979;SDS011;2004;52.452;13.120;2022-09-14T13:42:17;8.30;;;2.33;;
3979;SDS011;2004;52.452;13.120;2022-09-14T13:50:10;8.47;;;2.13;;
3979;SDS011;2004;52.452;13.120;2022-09-14T13:58:19;11.93;;;2.60;;
3979;SDS011;2004;52.452;13.120;2022-09-14T14:06:16;9.97;;;2.60;;
3979;SDS011;2004;52.452;13.120;2022-09-14T14:22:15;12.10;;;2.33;;
3979;SDS011;2004;52.452;13.120;2022-09-14T14:30:16;8.17;;;2.10;;
3979;SDS011;2004;52.452;13.120;2022-09-14T14:38:09;11.13;;;2.33;;
3979;SDS011;2004;52.452;13.120;2022-09-14T14:45:59;5.40;;;2.03;;
3979;SDS011;2004;52.452;13.120;2022-09-14T14:53:50;6.67;;;2.27;;
3979;SDS011;2004;52.452;13.120;2022-09-14T15:01:41;8.43;;;2.80;;
3979;SDS011;2004;52.452;13.120;2022-09-14T15:09:31;5.23;;;3.00;;
3979;SDS011;2004;52.452;13.120;2022-09-14T15:17:22;10.00;;;2.23;;
3979;SDS011;2004;52.452;13.120;2022-09-14T15:25:13;7.47;;;1.93;;
3979;SDS011;2004;52.452;13.120;2022-09-14T15:33:04;6.83;;;2.33;;
3979;SDS011;2004;52.452;13.120;2022-09-14T15:40:55;3.60;;;2.03;;
3979;SDS011;2004;52.452;13.120;2022-09-14T15:48:45;12.03;;;1.80;;
3979;SDS011;2004;52.452;13.120;2022-09-14T15:56:36;4.50;;;2.13;;
3979;SDS011;2004;52.452;13.120;2022-09-14T16:04:27;3.73;;;2.13;;
3979;SDS011;2004;52.452;13.120;2022-09-14T16:12:17;8.50;;;3.07;;
3979;SDS011;2004;52.452;13.120;2022-09-14T16:20:08;8.90;;;2.20;;
3979;SDS011;2004;52.452;13.120;2022-09-14T16:27:59;6.73;;;2.33;;
3979;SDS011;2004;52.452;13.120;2022-09-14T16:35:50;9.50;;;1.67;;
3979;SDS011;2004;52.452;13.120;2022-09-14T16:43:40;6.47;;;2.60;;
3979;SDS011;2004;52.452;13.120;2022-09-14T16:51:31;7.20;;;2.13;;
3979;SDS011;2004;52.452;13.120;2022-09-14T16:59:22;7.50;;;2.13;;
3979;SDS011;2004;52.452;13.120;2022-09-14T17:07:13;9.83;;;2.77;;
3979;SDS011;2004;52.452;13.120;2022-09-14T17:15:04;6.40;;;2.77;;
3979;SDS011;2004;52.452;13.120;2022-09-14T17:22:55;7.27;;;2.13;;
3979;SDS011;2004;52.452;13.120;2022-09-14T17:30:46;5.63;;;1.93;;
3979;SDS011;2004;52.452;13.120;2022-09-14T17:38:39;4.70;;;2.37;;
3979;SDS011;2004;52.452;13.120;2022-09-14T17:46:31;6.77;;;1.97;;
3979;SDS011;2004;52.452;13.120;2022-09-14T17:54:21;3.43;;;1.93;;
3979;SDS011;2004;52.452;13.120;2022-09-14T18:02:12;13.47;;;2.10;;
3979;SDS011;2004;52.452;13.120;2022-09-14T18:10:03;9.43;;;3.10;;
3979;SDS011;2004;52.452;13.120;2022-09-14T18:17:54;9.33;;;4.50;;
3979;SDS011;2004;52.452;13.120;2022-09-14T18:25:44;3.53;;;2.20;;
3979;SDS011;2004;52.452;13.120;2022-09-14T18:33:35;9.93;;;2.57;;
3979;SDS011;2004;52.452;13.120;2022-09-14T18:41:27;10.47;;;3.03;;
3979;SDS011;2004;52.452;13.120;2022-09-14T18:49:20;10.20;;;3.70;;
3979;SDS011;2004;52.452;13.120;2022-09-14T18:57:10;5.30;;;3.47;;
3979;SDS011;2004;52.452;13.120;2022-09-14T19:05:01;10.60;;;3.20;;
3979;SDS011;2004;52.452;13.120;2022-09-14T19:12:51;7.27;;;3.70;;
3979;SDS011;2004;52.452;13.120;2022-09-14T19:20:42;24.47;;;6.67;;
3979;SDS011;2004;52.452;13.120;2022-09-14T19:28:37;10.27;;;6.30;;
3979;SDS011;2004;52.452;13.120;2022-09-14T19:36:28;17.70;;;11.33;;
3979;SDS011;2004;52.452;13.120;2022-09-14T19:44:19;16.80;;;10.50;;
3979;SDS011;2004;52.452;13.120;2022-09-14T19:52:12;15.10;;;8.40;;
3979;SDS011;2004;52.452;13.120;2022-09-14T20:00:04;13.20;;;7.97;;
3979;SDS011;2004;52.452;13.120;2022-09-14T20:07:58;10.63;;;5.33;;
3979;SDS011;2004;52.452;13.120;2022-09-14T20:15:48;11.23;;;5.10;;
3979;SDS011;2004;52.452;13.120;2022-09-14T20:23:39;7.93;;;5.43;;
3979;SDS011;2004;52.452;13.120;2022-09-14T20:31:30;12.07;;;5.20;;
3979;SDS011;2004;52.452;13.120;2022-09-14T20:39:21;14.50;;;5.03;;
3979;SDS011;2004;52.452;13.120;2022-09-14T20:47:12;6.93;;;4.37;;
3979;SDS011;2004;52.452;13.120;2022-09-14T20:55:03;6.17;;;3.63;;
3979;SDS011;2004;52.452;13.120;2022-09-14T21:02:54;8.10;;;3.00;;
3979;SDS011;2004;52.452;13.120;2022-09-14T21:10:44;4.43;;;2.73;;
3979;SDS011;2004;52.452;13.120;2022-09-14T21:18:36;13.37;;;2.63;;
3979;SDS011;2004;52.452;13.120;2022-09-14T21:26:27;9.97;;;3.40;;
3979;SDS011;2004;52.452;13.120;2022-09-14T21:34:20;8.30;;;3.40;;
3979;SDS011;2004;52.452;13.120;2022-09-14T21:42:11;6.10;;;3.00;;
3979;SDS011;2004;52.452;13.120;2022-09-14T21:50:01;10.47;;;3.23;;
3979;SDS011;2004;52.452;13.120;2022-09-14T21:57:52;5.33;;;2.80;;
3979;SDS011;2004;52.452;13.120;2022-09-14T22:05:43;4.57;;;2.50;;
3979;SDS011;2004;52.452;13.120;2022-09-14T22:13:42;8.27;;;3.27;;
3979;SDS011;2004;52.452;13.120;2022-09-14T22:21:35;12.10;;;3.37;;
3979;SDS011;2004;52.452;13.120;2022-09-14T22:29:27;9.10;;;4.03;;
3979;SDS011;2004;52.452;13.120;2022-09-14T22:37:18;9.03;;;2.97;;
3979;SDS011;2004;52.452;13.120;2022-09-14T22:45:08;11.03;;;3.47;;
3979;SDS011;2004;52.452;13.120;2022-09-14T22:52:59;8.23;;;3.10;;
3979;SDS011;2004;52.452;13.120;2022-09-14T23:00:49;9.90;;;3.57;;
3979;SDS011;2004;52.452;13.120;2022-09-14T23:08:40;12.17;;;3.43;;
3979;SDS011;2004;52.452;13.120;2022-09-14T23:16:32;8.87;;;3.73;;
3979;SDS011;2004;52.452;13.120;2022-09-14T23:24:22;11.80;;;4.00;;
3979;SDS011;2004;52.452;13.120;2022-09-14T23:32:13;12.73;;;3.53;;
3979;SDS011;2004;52.452;13.120;2022-09-14T23:40:04;10.10;;;4.07;;
3979;SDS011;2004;52.452;13.120;2022-09-14T23:47:55;15.33;;;3.90;;
3979;SDS011;2004;52.452;13.120;2022-09-14T23:55:45;17.80;;;4.23;;
